Time;durP1;ratioP1;P1;durP2;ratioP2;P2;SDS_P1;SDS_P2;PMS_P1;PMS_P2;Temp;Humidity;BMP_temperature;BMP_pressure;BME280_temperature;BME280_humidity;BME280_pressure;Samples;Min_cycle;Max_cycle;Signal;HPM_P1;HPM_P2
2023/07/22 00:02:05;;;;;;;25.58;13.48;;;12.50;99.20;;;;;;5008688;28;20519;-67
2023/07/22 00:04:30;;;;;;;24.23;13.02;;;12.40;99.20;;;;;;5014957;28;20104;-67
2023/07/22 00:06:56;;;;;;;23.92;13.25;;;12.30;99.20;;;;;;5009191;28;20034;-67
2023/07/22 00:09:21;;;;;;;29.88;13.65;;;12.30;99.30;;;;;;5006623;28;20026;-67
2023/07/22 00:11:49;;;;;;;26.15;13.80;;;12.20;99.40;;;;;;5008066;28;20355;-67
2023/07/22 00:14:15;;;;;;;24.67;14.73;;;12.20;99.30;;;;;;5008640;28;20026;-68
2023/07/22 00:16:40;;;;;;;29.65;14.13;;;12.10;99.40;;;;;;5014995;28;20030;-67
2023/07/22 00:19:07;;;;;;;29.40;14.75;;;12.10;99.40;;;;;;5006224;28;20030;-68
2023/07/22 00:21:34;;;;;;;26.77;13.80;;;12.10;99.40;;;;;;5006372;28;20037;-67
2023/07/22 00:23:59;;;;;;;32.53;14.55;;;12.00;99.40;;;;;;5011759;28;20017;-67
2023/07/22 00:26:25;;;;;;;29.20;15.35;;;12.00;99.60;;;;;;5012948;28;20072;-67
2023/07/22 00:28:50;;;;;;;34.58;15.43;;;12.00;99.60;;;;;;5011414;28;20030;-67
2023/07/22 00:31:16;;;;;;;33.85;16.52;;;12.00;99.60;;;;;;5008447;28;20030;-67
2023/07/22 00:33:42;;;;;;;31.73;15.90;;;12.00;99.70;;;;;;5012599;28;20109;-67
2023/07/22 00:36:07;;;;;;;31.50;16.15;;;11.90;99.60;;;;;;5009943;28;20033;-67
2023/07/22 00:38:33;;;;;;;40.83;16.63;;;11.90;99.70;;;;;;5010706;28;20109;-67
2023/07/22 00:40:58;;;;;;;37.08;16.52;;;11.80;99.70;;;;;;5009576;28;20064;-67
2023/07/22 00:43:25;;;;;;;37.30;16.65;;;11.80;99.70;;;;;;5012938;28;20037;-67
2023/07/22 00:45:51;;;;;;;42.97;17.27;;;11.80;99.80;;;;;;5011645;28;20022;-67
2023/07/22 00:48:17;;;;;;;41.22;17.15;;;11.80;99.80;;;;;;5005926;28;20022;-68
2023/07/22 00:50:43;;;;;;;42.97;18.15;;;11.80;99.80;;;;;;5008820;28;20373;-67
2023/07/22 00:53:09;;;;;;;41.00;17.33;;;11.70;99.80;;;;;;5010168;28;20370;-67
2023/07/22 00:55:35;;;;;;;40.75;17.60;;;11.70;99.90;;;;;;5009608;28;20373;-67
2023/07/22 00:58:01;;;;;;;43.35;18.15;;;11.70;99.80;;;;;;5012268;28;20037;-67
2023/07/22 01:00:26;;;;;;;39.05;18.00;;;11.70;99.90;;;;;;5007268;28;20026;-67
2023/07/22 01:02:52;;;;;;;40.30;18.15;;;11.70;99.90;;;;;;5008631;28;20087;-67
2023/07/22 01:05:18;;;;;;;38.65;18.77;;;11.60;99.90;;;;;;5010047;28;20041;-67
2023/07/22 01:07:44;;;;;;;42.35;17.58;;;11.60;99.90;;;;;;5007944;28;20480;-67
2023/07/22 01:10:09;;;;;;;43.75;19.20;;;11.60;99.90;;;;;;5007834;28;20034;-67
2023/07/22 01:12:35;;;;;;;42.63;19.00;;;11.60;99.90;;;;;;5009286;28;20038;-67
2023/07/22 01:15:03;;;;;;;53.42;20.10;;;11.60;99.90;;;;;;5011754;28;20030;-67
2023/07/22 01:17:28;;;;;;;46.42;20.00;;;11.50;99.90;;;;;;5010734;28;20417;-67
2023/07/22 01:19:55;;;;;;;48.15;20.00;;;11.50;99.90;;;;;;5007483;28;20026;-67
2023/07/22 01:22:21;;;;;;;43.90;21.10;;;11.50;99.90;;;;;;5008334;28;20489;-67
2023/07/22 01:24:47;;;;;;;54.65;21.50;;;11.50;99.90;;;;;;5005489;28;20038;-67
2023/07/22 01:27:14;;;;;;;57.50;21.98;;;11.50;99.90;;;;;;5003951;28;20522;-66
2023/07/22 01:29:39;;;;;;;53.67;21.80;;;11.50;99.90;;;;;;5010929;28;20050;-67
2023/07/22 01:32:05;;;;;;;57.65;22.17;;;11.40;99.90;;;;;;5011738;28;20068;-67
2023/07/22 01:34:31;;;;;;;63.88;22.83;;;11.40;99.90;;;;;;5002335;28;20132;-67
2023/07/22 01:36:57;;;;;;;53.00;21.67;;;11.50;99.90;;;;;;4999806;28;20542;-67
2023/07/22 01:39:22;;;;;;;54.30;22.27;;;11.40;99.90;;;;;;5006451;28;20467;-67
2023/07/22 01:41:48;;;;;;;63.38;23.33;;;11.40;99.90;;;;;;5008121;28;20458;-67
2023/07/22 01:44:14;;;;;;;60.42;22.55;;;11.40;99.90;;;;;;5004934;28;20049;-67
2023/07/22 01:46:40;;;;;;;55.08;22.48;;;11.30;99.90;;;;;;5006367;28;20755;-67
2023/07/22 01:49:12;;;;;;;65.90;22.40;;;11.30;99.90;;;;;;5003733;28;20482;-67
2023/07/22 01:51:38;;;;;;;56.67;21.70;;;11.30;99.90;;;;;;5003764;28;20112;-67
2023/07/22 01:54:04;;;;;;;55.03;22.77;;;11.30;99.90;;;;;;5008777;28;20117;-67
2023/07/22 01:56:30;;;;;;;64.75;22.45;;;11.30;99.90;;;;;;5009682;28;20363;-67
2023/07/22 01:58:55;;;;;;;65.28;22.85;;;11.30;99.90;;;;;;5004083;28;20029;-67
2023/07/22 02:01:21;;;;;;;65.18;22.83;;;11.30;99.90;;;;;;5005481;28;20125;-67
2023/07/22 02:03:46;;;;;;;61.78;21.63;;;11.30;99.90;;;;;;5009920;28;20061;-67
2023/07/22 02:06:12;;;;;;;62.65;21.52;;;11.30;99.90;;;;;;5006452;28;20030;-67
2023/07/22 02:08:38;;;;;;;57.45;20.83;;;11.20;99.90;;;;;;5007509;28;20141;-67
2023/07/22 02:11:06;;;;;;;69.13;22.00;;;11.20;99.90;;;;;;5006672;28;20025;-67
2023/07/22 02:13:33;;;;;;;64.10;23.23;;;11.20;99.90;;;;;;5006387;28;20527;-67
2023/07/22 02:15:59;;;;;;;55.95;21.65;;;11.20;99.90;;;;;;5010221;28;20370;-67
2023/07/22 02:18:24;;;;;;;65.35;21.75;;;11.20;99.90;;;;;;5009921;28;20041;-67
2023/07/22 02:20:50;;;;;;;63.67;21.88;;;11.10;99.90;;;;;;5005624;28;20042;-67
2023/07/22 02:23:15;;;;;;;68.75;21.63;;;11.10;99.90;;;;;;5005022;28;20045;-67
2023/07/22 02:25:41;;;;;;;68.18;22.73;;;11.00;99.90;;;;;;5008038;28;20084;-67
2023/07/22 02:28:06;;;;;;;66.78;22.45;;;11.00;99.90;;;;;;5004133;28;20038;-67
2023/07/22 02:30:36;;;;;;;61.05;21.60;;;11.00;99.90;;;;;;5012186;28;20179;-67
2023/07/22 02:33:02;;;;;;;65.72;21.67;;;11.00;99.90;;;;;;5005574;28;20033;-67
2023/07/22 02:35:28;;;;;;;65.10;21.95;;;11.00;99.90;;;;;;5004635;28;20026;-68
2023/07/22 02:37:54;;;;;;;60.90;22.35;;;11.00;99.90;;;;;;5006993;28;20049;-67
2023/07/22 02:40:19;;;;;;;67.13;21.58;;;10.90;99.90;;;;;;5008204;28;20034;-67
2023/07/22 02:42:45;;;;;;;68.60;22.77;;;10.90;99.90;;;;;;5007467;28;20026;-67
2023/07/22 02:45:10;;;;;;;65.05;22.65;;;10.90;99.90;;;;;;5004509;28;20425;-68
2023/07/22 02:47:36;;;;;;;70.00;22.83;;;10.90;99.90;;;;;;5008688;28;20041;-67
2023/07/22 02:50:03;;;;;;;70.97;22.27;;;10.90;99.90;;;;;;5004875;28;20160;-67
2023/07/22 02:52:28;;;;;;;60.28;20.50;;;10.90;99.90;;;;;;5011073;28;20056;-67
2023/07/22 02:55:12;;;;;;;59.92;20.80;;;10.90;99.90;;;;;;5007342;28;20073;-67
2023/07/22 02:57:39;;;;;;;71.38;21.50;;;10.90;99.90;;;;;;5007855;28;20049;-67
2023/07/22 03:00:08;;;;;;;73.82;21.60;;;10.80;99.90;;;;;;5006625;28;20160;-67
2023/07/22 03:02:37;;;;;;;69.70;21.80;;;10.80;99.90;;;;;;5002328;28;20046;-67
2023/07/22 03:05:07;;;;;;;71.63;22.08;;;10.80;99.90;;;;;;5001489;28;20550;-67
2023/07/22 03:07:36;;;;;;;68.90;21.80;;;10.80;99.90;;;;;;5008926;28;20030;-67
2023/07/22 03:10:01;;;;;;;60.40;20.92;;;10.80;99.90;;;;;;5013071;28;20405;-67
2023/07/22 03:12:27;;;;;;;64.50;20.92;;;10.70;99.90;;;;;;5008169;28;20026;-66
2023/07/22 03:14:53;;;;;;;62.03;20.75;;;10.70;99.90;;;;;;5006441;28;20024;-67
2023/07/22 03:17:18;;;;;;;68.45;20.75;;;10.70;99.90;;;;;;5009719;28;20034;-66
2023/07/22 03:19:44;;;;;;;65.15;20.15;;;10.70;99.90;;;;;;5006145;28;20033;-67
2023/07/22 03:22:11;;;;;;;66.65;20.85;;;10.70;99.90;;;;;;5015684;28;20810;-67
2023/07/22 03:24:36;;;;;;;61.80;19.08;;;10.70;99.90;;;;;;5010184;28;20038;-67
2023/07/22 03:27:02;;;;;;;59.25;20.33;;;10.70;99.90;;;;;;5011281;28;20836;-67
2023/07/22 03:29:27;;;;;;;64.05;20.30;;;10.70;99.90;;;;;;5010433;28;20034;-67
2023/07/22 03:31:53;;;;;;;60.90;19.40;;;10.70;99.90;;;;;;5011569;28;20026;-68
2023/07/22 03:34:19;;;;;;;71.18;19.75;;;10.70;99.90;;;;;;5005571;28;20034;-67
2023/07/22 03:36:46;;;;;;;61.92;18.80;;;10.60;99.90;;;;;;5007162;28;20433;-67
2023/07/22 03:39:11;;;;;;;62.60;19.63;;;10.60;99.90;;;;;;5014291;28;20045;-67
2023/07/22 03:41:37;;;;;;;68.35;20.80;;;10.60;99.90;;;;;;5009293;28;20030;-67
2023/07/22 03:44:02;;;;;;;62.40;19.90;;;10.60;99.90;;;;;;5012869;28;20026;-67
2023/07/22 03:46:28;;;;;;;62.55;19.27;;;10.60;99.90;;;;;;5007813;28;20034;-66
2023/07/22 03:48:54;;;;;;;70.32;20.65;;;10.60;99.90;;;;;;5008140;28;20045;-67
2023/07/22 03:51:19;;;;;;;75.13;20.17;;;10.60;99.90;;;;;;5002690;28;20025;-67
2023/07/22 03:53:45;;;;;;;74.93;20.58;;;10.60;99.90;;;;;;5007316;28;20029;-67
2023/07/22 03:56:10;;;;;;;68.30;20.02;;;10.60;99.90;;;;;;5009835;28;20398;-67
2023/07/22 03:58:35;;;;;;;62.70;20.42;;;10.60;99.90;;;;;;5010001;28;20026;-67
2023/07/22 04:01:01;;;;;;;75.00;20.40;;;10.60;99.90;;;;;;5007663;28;20026;-66
2023/07/22 04:03:26;;;;;;;64.07;19.33;;;10.60;99.90;;;;;;5008343;28;20445;-67
2023/07/22 04:05:56;;;;;;;63.20;18.80;;;10.60;99.90;;;;;;5006148;28;20060;-67
2023/07/22 04:08:21;;;;;;;69.07;19.23;;;10.60;99.90;;;;;;5009192;28;20034;-67
2023/07/22 04:10:54;;;;;;;80.97;19.63;;;10.60;99.90;;;;;;5013807;28;20033;-67
2023/07/22 04:13:19;;;;;;;60.10;18.38;;;10.60;99.90;;;;;;5011935;28;20040;-67
2023/07/22 04:15:46;;;;;;;68.10;19.90;;;10.60;99.90;;;;;;5010848;28;20034;-67
2023/07/22 04:18:12;;;;;;;70.22;19.23;;;10.70;99.90;;;;;;5011851;28;20056;-67
2023/07/22 04:20:37;;;;;;;63.03;17.83;;;10.70;99.90;;;;;;5007340;28;20033;-67
2023/07/22 04:23:02;;;;;;;67.70;18.88;;;10.70;99.90;;;;;;5011010;28;20029;-67
2023/07/22 04:25:28;;;;;;;69.07;18.40;;;10.80;99.90;;;;;;5009469;28;20463;-67
2023/07/22 04:27:53;;;;;;;60.25;17.50;;;10.70;99.90;;;;;;5007626;28;20033;-67
2023/07/22 04:30:20;;;;;;;66.07;18.23;;;10.80;99.90;;;;;;5010495;28;20084;-68
2023/07/22 04:32:49;;;;;;;67.85;17.50;;;10.80;99.90;;;;;;5010201;28;20036;-67
2023/07/22 04:35:17;;;;;;;74.70;19.52;;;10.80;99.90;;;;;;5001767;28;20033;-67
2023/07/22 04:37:44;;;;;;;55.85;17.10;;;10.80;99.90;;;;;;5005097;28;20014;-67
2023/07/22 04:40:13;;;;;;;68.00;17.23;;;10.80;99.90;;;;;;5013083;28;20087;-67
2023/07/22 04:42:40;;;;;;;60.30;18.10;;;10.90;99.90;;;;;;5006470;28;20517;-67
2023/07/22 04:45:06;;;;;;;70.60;18.50;;;10.90;99.90;;;;;;5010175;28;20018;-67
2023/07/22 04:47:32;;;;;;;68.85;17.63;;;10.90;99.90;;;;;;5006796;28;20018;-67
2023/07/22 04:49:57;;;;;;;58.33;16.60;;;11.00;99.90;;;;;;5004956;28;20038;-67
2023/07/22 04:52:23;;;;;;;55.47;16.90;;;11.10;99.90;;;;;;5010227;28;20366;-67
2023/07/22 04:54:49;;;;;;;62.50;16.98;;;11.10;99.90;;;;;;5013224;28;20029;-67
2023/07/22 04:57:16;;;;;;;58.38;16.92;;;11.20;99.90;;;;;;5012144;28;20057;-67
2023/07/22 04:59:42;;;;;;;60.22;17.17;;;11.10;99.90;;;;;;5009041;28;20028;-67
2023/07/22 05:02:07;;;;;;;60.80;16.73;;;11.30;99.90;;;;;;5005316;28;20042;-67
2023/07/22 05:04:33;;;;;;;55.20;16.80;;;11.30;99.90;;;;;;5011779;28;20053;-67
2023/07/22 05:06:58;;;;;;;62.40;16.33;;;11.40;99.90;;;;;;5008316;28;20101;-67
2023/07/22 05:09:24;;;;;;;61.70;16.65;;;11.40;99.90;;;;;;5009858;28;20034;-67
2023/07/22 05:11:49;;;;;;;50.97;15.85;;;11.40;99.90;;;;;;5009437;28;20034;-68
2023/07/22 05:14:15;;;;;;;58.67;17.42;;;11.50;99.90;;;;;;5010802;28;20032;-67
2023/07/22 05:16:40;;;;;;;56.42;15.98;;;11.50;99.90;;;;;;5013899;28;22099;-67
2023/07/22 05:19:07;;;;;;;58.47;16.00;;;11.60;99.90;;;;;;5006343;28;20113;-67
2023/07/22 05:21:33;;;;;;;67.25;16.83;;;11.60;99.90;;;;;;5008768;28;20040;-67
2023/07/22 05:23:59;;;;;;;51.33;14.35;;;11.60;99.90;;;;;;5015132;28;20538;-67
2023/07/22 05:26:24;;;;;;;54.08;15.68;;;11.70;99.90;;;;;;5009071;28;20084;-67
2023/07/22 05:28:50;;;;;;;61.47;15.65;;;11.70;99.80;;;;;;5008560;28;20109;-67
2023/07/22 05:31:16;;;;;;;63.65;16.60;;;11.80;99.90;;;;;;5009453;28;20101;-69
2023/07/22 05:33:41;;;;;;;42.40;13.77;;;11.90;99.90;;;;;;5005360;28;20025;-69
2023/07/22 05:36:07;;;;;;;55.08;15.05;;;12.00;99.80;;;;;;5011514;28;20363;-70
2023/07/22 05:38:33;;;;;;;53.08;15.45;;;12.00;99.70;;;;;;5005398;28;20026;-69
2023/07/22 05:40:59;;;;;;;58.45;16.40;;;12.10;99.60;;;;;;5008500;28;20100;-69
2023/07/22 05:43:24;;;;;;;52.47;14.77;;;12.20;99.50;;;;;;5009087;28;20025;-69
2023/07/22 05:45:50;;;;;;;48.08;15.25;;;12.30;99.50;;;;;;5008662;28;20046;-69
2023/07/22 05:48:15;;;;;;;46.13;14.20;;;12.30;99.50;;;;;;5003895;28;20033;-69
2023/07/22 05:50:41;;;;;;;46.15;14.10;;;12.30;99.30;;;;;;5002968;28;20018;-70
2023/07/22 05:53:07;;;;;;;39.50;13.68;;;12.30;99.30;;;;;;5008383;28;20156;-69
2023/07/22 05:55:32;;;;;;;49.58;13.57;;;12.40;99.20;;;;;;5007350;28;20026;-70
2023/07/22 05:57:59;;;;;;;46.90;14.73;;;12.40;99.20;;;;;;5009387;28;20033;-69
2023/07/22 06:00:24;;;;;;;46.40;13.90;;;12.50;99.20;;;;;;5003977;28;20080;-70
2023/07/22 06:02:50;;;;;;;47.42;14.50;;;12.70;99.20;;;;;;5001800;28;20050;-69
2023/07/22 06:05:15;;;;;;;48.78;12.85;;;12.70;98.90;;;;;;5001837;28;20021;-70
2023/07/22 06:07:41;;;;;;;42.22;13.35;;;12.80;98.80;;;;;;5007869;28;20049;-70
2023/07/22 06:10:08;;;;;;;47.35;14.55;;;12.80;98.80;;;;;;5008928;28;20513;-70
2023/07/22 06:12:34;;;;;;;40.83;12.75;;;13.00;98.70;;;;;;5002941;28;20018;-70
2023/07/22 06:14:59;;;;;;;42.75;14.63;;;13.00;98.40;;;;;;5005738;28;20109;-70
2023/07/22 06:17:25;;;;;;;41.17;13.77;;;13.00;98.40;;;;;;5007760;28;20188;-70
2023/07/22 06:19:50;;;;;;;37.30;13.07;;;13.20;98.20;;;;;;5005250;28;20048;-70
2023/07/22 06:22:16;;;;;;;40.70;12.68;;;13.20;97.90;;;;;;5014164;28;20418;-71
2023/07/22 06:24:41;;;;;;;36.38;11.70;;;13.20;97.70;;;;;;5008715;28;20092;-70
2023/07/22 06:27:07;;;;;;;32.97;12.07;;;13.30;97.80;;;;;;5007580;28;20069;-70
2023/07/22 06:29:32;;;;;;;33.30;11.02;;;13.50;97.80;;;;;;5009485;28;20030;-70
2023/07/22 06:31:57;;;;;;;31.30;11.23;;;13.60;97.30;;;;;;5004447;28;20042;-69
2023/07/22 06:34:23;;;;;;;29.98;10.07;;;13.50;97.00;;;;;;5002528;28;20030;-69
2023/07/22 06:36:48;;;;;;;23.50;9.52;;;13.70;97.20;;;;;;5006674;28;20022;-70
2023/07/22 06:39:14;;;;;;;27.98;8.95;;;13.90;97.00;;;;;;5002079;28;20111;-69
2023/07/22 06:41:39;;;;;;;21.83;8.00;;;14.00;96.80;;;;;;5004892;28;20470;-69
2023/07/22 06:44:05;;;;;;;18.45;7.50;;;14.00;96.60;;;;;;5011326;28;20030;-69
2023/07/22 06:46:30;;;;;;;20.67;8.55;;;14.10;96.40;;;;;;5010297;28;20030;-69
2023/07/22 06:48:56;;;;;;;19.05;8.05;;;14.30;96.80;;;;;;5004505;28;20407;-69
2023/07/22 06:51:21;;;;;;;14.95;7.82;;;14.40;96.60;;;;;;5015248;28;20040;-69
2023/07/22 06:53:47;;;;;;;18.58;7.47;;;14.50;96.10;;;;;;5006595;28;20033;-70
2023/07/22 06:56:12;;;;;;;12.77;6.70;;;14.30;95.40;;;;;;5007778;28;20532;-69
2023/07/22 06:58:38;;;;;;;13.13;7.00;;;14.30;95.30;;;;;;5007045;28;20036;-70
2023/07/22 07:01:03;;;;;;;12.88;6.80;;;14.40;95.50;;;;;;5004409;28;20029;-70
2023/07/22 07:03:29;;;;;;;15.75;6.57;;;14.70;95.40;;;;;;5014822;28;20049;-69
2023/07/22 07:05:59;;;;;;;13.02;5.72;;;14.80;95.20;;;;;;5020366;28;20021;-70
2023/07/22 07:08:24;;;;;;;10.43;5.07;;;14.70;94.20;;;;;;5005055;28;20084;-70
2023/07/22 07:10:51;;;;;;;13.95;5.47;;;14.90;94.30;;;;;;5011679;28;20042;-69
2023/07/22 07:13:17;;;;;;;11.40;4.43;;;14.90;92.70;;;;;;5012876;28;20084;-70
2023/07/22 07:15:48;;;;;;;10.57;4.97;;;15.00;92.40;;;;;;5008551;28;20022;-70
2023/07/22 07:18:14;;;;;;;14.90;4.90;;;15.20;93.10;;;;;;5008099;28;20037;-70
2023/07/22 07:20:39;;;;;;;10.30;4.40;;;15.30;92.20;;;;;;5018610;28;20030;-70
2023/07/22 07:23:05;;;;;;;9.90;3.70;;;15.20;91.50;;;;;;5003430;28;20037;-70
2023/07/22 07:25:30;;;;;;;10.68;4.00;;;15.50;92.60;;;;;;5015629;28;20034;-70
2023/07/22 07:27:56;;;;;;;10.02;3.58;;;15.60;91.10;;;;;;5013146;28;20077;-70
2023/07/22 07:30:21;;;;;;;8.45;3.70;;;15.70;89.90;;;;;;5011020;28;20473;-70
2023/07/22 07:32:46;;;;;;;10.07;3.50;;;15.60;90.60;;;;;;5008683;28;20042;-70
2023/07/22 07:35:12;;;;;;;8.05;3.42;;;15.50;89.70;;;;;;5008385;28;20038;-70
2023/07/22 07:37:37;;;;;;;6.90;3.25;;;15.50;89.80;;;;;;5011784;28;20466;-70
2023/07/22 07:40:04;;;;;;;9.23;3.65;;;15.90;90.20;;;;;;5009910;28;20188;-70
2023/07/22 07:42:29;;;;;;;7.35;3.67;;;16.10;88.20;;;;;;5016665;28;20030;-70
2023/07/22 07:44:55;;;;;;;11.40;4.00;;;16.40;90.50;;;;;;5012232;28;20048;-70
2023/07/22 07:47:20;;;;;;;9.50;3.50;;;16.40;88.50;;;;;;5010322;28;20368;-70
2023/07/22 07:49:46;;;;;;;7.78;4.10;;;16.60;88.70;;;;;;5010552;28;20029;-71
2023/07/22 07:52:11;;;;;;;7.20;3.50;;;16.50;88.50;;;;;;5010400;28;21054;-70
2023/07/22 07:54:36;;;;;;;8.32;3.90;;;16.30;86.80;;;;;;5013403;28;20030;-70
2023/07/22 07:57:02;;;;;;;6.70;3.38;;;16.50;86.50;;;;;;5012006;28;20452;-70
2023/07/22 07:59:28;;;;;;;7.00;2.92;;;16.50;88.10;;;;;;5005048;28;20042;-70
2023/07/22 08:01:53;;;;;;;5.68;2.85;;;16.50;84.30;;;;;;5003617;28;20036;-70
2023/07/22 08:04:18;;;;;;;6.00;2.72;;;16.70;85.60;;;;;;5008896;28;20459;-70
2023/07/22 08:06:45;;;;;;;5.65;2.50;;;16.80;83.90;;;;;;5006438;28;20053;-70
2023/07/22 08:09:10;;;;;;;4.78;2.75;;;17.00;83.80;;;;;;5009351;28;20041;-70
2023/07/22 08:11:37;;;;;;;7.75;3.05;;;17.10;83.90;;;;;;5016846;28;20025;-70
2023/07/22 08:14:02;;;;;;;5.35;2.47;;;16.60;84.10;;;;;;5003784;28;20041;-70
2023/07/22 08:16:28;;;;;;;7.07;2.33;;;16.50;84.90;;;;;;5011434;28;20033;-70
2023/07/22 08:18:53;;;;;;;4.50;1.60;;;16.70;84.30;;;;;;5006672;28;20149;-70
2023/07/22 08:21:19;;;;;;;3.92;1.67;;;16.70;82.80;;;;;;5009175;28;20056;-69
2023/07/22 08:23:46;;;;;;;4.47;1.75;;;16.70;83.30;;;;;;5008189;28;20353;-69
2023/07/22 08:26:12;;;;;;;4.40;1.75;;;16.50;81.20;;;;;;5006184;28;20042;-69
2023/07/22 08:28:37;;;;;;;4.70;1.85;;;16.10;81.90;;;;;;5002817;28;20041;-72
2023/07/22 08:31:03;;;;;;;5.60;2.10;;;16.50;81.30;;;;;;5003436;28;20111;-69
2023/07/22 08:33:29;;;;;;;4.43;1.85;;;16.70;81.50;;;;;;5008308;28;20030;-69
2023/07/22 08:35:55;;;;;;;4.32;1.75;;;17.20;81.10;;;;;;5003561;28;20030;-70
2023/07/22 08:38:21;;;;;;;2.53;1.40;;;17.60;78.50;;;;;;5004817;28;20037;-69
2023/07/22 08:40:50;;;;;;;6.90;1.80;;;18.00;80.10;;;;;;5011372;28;20037;-70
2023/07/22 08:43:22;;;;;;;4.50;1.60;;;18.10;77.50;;;;;;5007667;28;20355;-70
2023/07/22 08:45:49;;;;;;;4.63;1.52;;;18.00;77.00;;;;;;5007859;28;20057;-70
2023/07/22 08:48:18;;;;;;;6.28;1.50;;;18.00;77.20;;;;;;5006560;28;20124;-70
2023/07/22 08:50:51;;;;;;;3.00;1.63;;;18.50;80.00;;;;;;5001467;28;20482;-70
2023/07/22 08:53:19;;;;;;;4.57;1.73;;;18.40;77.10;;;;;;5017565;28;20037;-70
2023/07/22 08:55:45;;;;;;;3.63;1.85;;;18.40;77.20;;;;;;5010371;28;20030;-69
2023/07/22 08:58:11;;;;;;;6.63;1.80;;;18.60;74.90;;;;;;5007613;28;20038;-69
2023/07/22 09:00:38;;;;;;;2.80;1.33;;;19.00;78.20;;;;;;5001892;28;20022;-70
2023/07/22 09:03:04;;;;;;;5.18;1.52;;;18.60;74.20;;;;;;5003255;28;20057;-71
2023/07/22 09:05:35;;;;;;;3.88;1.20;;;18.80;73.90;;;;;;4998041;28;20034;-69
2023/07/22 09:08:03;;;;;;;5.22;1.60;;;18.70;73.80;;;;;;5001228;28;20135;-69
2023/07/22 09:10:29;;;;;;;4.25;1.40;;;19.00;75.00;;;;;;5002097;28;20049;-70
2023/07/22 09:12:55;;;;;;;2.72;1.33;;;18.90;71.80;;;;;;5007876;28;20056;-70
2023/07/22 09:15:21;;;;;;;2.08;1.30;;;19.00;70.40;;;;;;5006593;28;20038;-69
2023/07/22 09:17:47;;;;;;;2.08;0.90;;;19.00;69.60;;;;;;5007992;28;20034;-70
2023/07/22 09:20:14;;;;;;;5.25;1.38;;;18.80;69.60;;;;;;5009146;28;20108;-69
2023/07/22 09:22:46;;;;;;;4.20;1.20;;;18.70;70.20;;;;;;5002455;28;20109;-68
2023/07/22 09:25:16;;;;;;;3.55;1.27;;;18.60;68.80;;;;;;5003861;28;20069;-69
2023/07/22 09:27:42;;;;;;;5.68;1.60;;;18.80;69.00;;;;;;5003125;28;20399;-68
2023/07/22 09:30:26;;;;;;;2.42;1.25;;;19.00;69.40;;;;;;5001582;28;20120;-69
2023/07/22 09:32:54;;;;;;;3.05;1.33;;;19.30;71.20;;;;;;4999744;28;20433;-69
2023/07/22 09:35:20;;;;;;;3.08;1.40;;;19.30;68.50;;;;;;5001647;28;20504;-70
2023/07/22 09:37:45;;;;;;;2.35;1.20;;;19.00;68.00;;;;;;4998574;28;20030;-71
2023/07/22 09:40:18;;;;;;;2.53;1.08;;;19.50;69.20;;;;;;5003572;28;20064;-70
2023/07/22 09:42:49;;;;;;;4.40;1.40;;;19.50;67.90;;;;;;5006258;28;20356;-73
2023/07/22 09:45:15;;;;;;;2.55;1.38;;;19.30;68.40;;;;;;5005623;28;20022;-69
2023/07/22 09:47:42;;;;;;;2.92;1.40;;;19.10;65.00;;;;;;5000139;28;20100;-72
2023/07/22 09:50:11;;;;;;;4.20;1.63;;;19.10;67.90;;;;;;5014733;28;20492;-71
2023/07/22 09:52:45;;;;;;;2.70;1.30;;;19.00;68.30;;;;;;5011323;28;20041;-71
2023/07/22 09:55:12;;;;;;;4.05;1.67;;;18.90;67.90;;;;;;5001706;28;20026;-71
2023/07/22 09:57:42;;;;;;;6.22;1.70;;;18.60;66.80;;;;;;4999111;28;20370;-70
2023/07/22 10:00:09;;;;;;;3.20;1.50;;;18.70;69.50;;;;;;5003340;28;20022;-73
2023/07/22 10:02:35;;;;;;;3.30;1.30;;;18.60;67.30;;;;;;5004950;28;20046;-71
2023/07/22 10:05:03;;;;;;;2.45;1.50;;;18.90;70.90;;;;;;5001096;28;20062;-69
2023/07/22 10:07:30;;;;;;;3.58;1.30;;;18.80;69.40;;;;;;4997436;28;20411;-68
2023/07/22 10:09:56;;;;;;;3.35;1.77;;;18.90;67.80;;;;;;4999463;28;20112;-69
2023/07/22 10:12:22;;;;;;;3.80;1.60;;;19.40;67.60;;;;;;5002044;28;20029;-68
2023/07/22 10:14:49;;;;;;;5.30;1.73;;;19.50;64.80;;;;;;5003015;28;20472;-68
2023/07/22 10:17:16;;;;;;;4.32;1.77;;;19.20;64.60;;;;;;5004192;28;20092;-68
2023/07/22 10:19:42;;;;;;;5.18;1.75;;;19.00;66.40;;;;;;5005379;28;20025;-68
2023/07/22 10:22:10;;;;;;;4.80;1.90;;;19.20;67.70;;;;;;4998702;28;20034;-68
2023/07/22 10:24:36;;;;;;;3.33;1.92;;;19.50;65.90;;;;;;5002082;28;20048;-68
2023/07/22 10:27:02;;;;;;;4.40;1.90;;;19.90;66.60;;;;;;5003750;28;20089;-67
2023/07/22 10:29:29;;;;;;;5.78;2.10;;;20.00;63.10;;;;;;4999427;28;20026;-68
2023/07/22 10:31:54;;;;;;;4.82;2.08;;;20.30;63.20;;;;;;5008991;28;20052;-68
2023/07/22 10:34:29;;;;;;;5.07;2.42;;;20.20;63.30;;;;;;5004063;28;20494;-68
2023/07/22 10:36:58;;;;;;;4.25;2.60;;;20.20;62.90;;;;;;5005620;28;20076;-68
2023/07/22 10:39:28;;;;;;;4.50;2.55;;;20.60;62.50;;;;;;5008136;28;20421;-68
2023/07/22 10:42:01;;;;;;;5.20;2.90;;;21.20;63.80;;;;;;5011257;28;20041;-68
2023/07/22 10:44:27;;;;;;;6.75;3.20;;;21.30;61.80;;;;;;5009000;28;20296;-67
2023/07/22 10:46:59;;;;;;;5.63;3.28;;;20.70;61.80;;;;;;5010203;28;20484;-68
2023/07/22 10:49:41;;;;;;;7.40;3.35;;;20.50;62.50;;;;;;5008182;28;20033;-68
2023/07/22 10:52:07;;;;;;;6.10;3.15;;;20.40;63.20;;;;;;5005777;28;20034;-68
2023/07/22 10:54:34;;;;;;;5.32;3.60;;;20.10;64.30;;;;;;5001578;28;20354;-68
2023/07/22 10:57:15;;;;;;;6.32;3.50;;;19.60;64.30;;;;;;5011386;28;20100;-68
2023/07/22 10:59:47;;;;;;;;;;;19.50;64.20;;;;;;5004185;28;20037;-68
2023/07/22 11:02:24;;;;;;;6.75;3.45;;;19.50;64.00;;;;;;5005717;28;20424;-68
2023/07/22 11:04:49;;;;;;;5.57;3.17;;;19.50;63.70;;;;;;5007330;28;20042;-68
2023/07/22 11:07:15;;;;;;;7.47;3.40;;;19.70;64.30;;;;;;5009365;28;20037;-68
2023/07/22 11:09:43;;;;;;;5.97;3.25;;;20.40;64.40;;;;;;5009296;28;20353;-68
2023/07/22 11:12:12;;;;;;;4.65;3.17;;;20.60;65.50;;;;;;5013085;28;20135;-68
2023/07/22 11:14:52;;;;;;;7.07;3.38;;;21.00;65.40;;;;;;5010201;28;20092;-68
2023/07/22 11:17:27;;;;;;;12.23;3.92;;;20.70;65.80;;;;;;5002106;28;20018;-68
2023/07/22 11:19:53;;;;;;;7.32;2.92;;;20.60;65.40;;;;;;5012900;28;20072;-68
2023/07/22 11:22:19;;;;;;;7.15;4.10;;;20.50;63.20;;;;;;5012264;28;20100;-68
2023/07/22 11:24:44;;;;;;;12.00;3.85;;;20.30;63.50;;;;;;5007191;28;20033;-68
2023/07/22 11:27:10;;;;;;;5.97;3.42;;;20.90;61.30;;;;;;5013436;28;20382;-68
2023/07/22 11:29:36;;;;;;;7.85;3.85;;;21.60;62.00;;;;;;5007200;28;20029;-69
2023/07/22 11:32:03;;;;;;;7.68;3.78;;;22.10;60.90;;;;;;5000495;28;20025;-68
2023/07/22 11:34:28;;;;;;;5.70;3.58;;;22.50;60.30;;;;;;5007690;28;20037;-68
2023/07/22 11:36:55;;;;;;;5.13;3.50;;;21.90;58.00;;;;;;5009410;28;20108;-68
2023/07/22 11:39:23;;;;;;;7.68;3.50;;;21.50;60.30;;;;;;5005658;28;22249;-68
2023/07/22 11:41:49;;;;;;;6.82;3.40;;;20.90;60.90;;;;;;5006818;28;20124;-68
2023/07/22 11:44:17;;;;;;;7.97;3.97;;;20.30;62.10;;;;;;5010805;28;20042;-68
2023/07/22 11:46:59;;;;;;;6.88;4.15;;;20.00;63.60;;;;;;5002530;28;20030;-68
2023/07/22 11:49:33;;;;;;;9.55;3.97;;;20.10;64.90;;;;;;5003537;28;20037;-67
2023/07/22 11:52:04;;;;;;;6.28;4.18;;;20.50;64.00;;;;;;5000136;28;20335;-68
2023/07/22 11:54:31;;;;;;;8.27;4.43;;;20.50;64.20;;;;;;5003896;28;20035;-68
2023/07/22 11:56:57;;;;;;;6.90;3.78;;;20.40;65.10;;;;;;5004758;28;20371;-68
2023/07/22 11:59:33;;;;;;;6.78;4.03;;;20.10;63.20;;;;;;5004840;28;20018;-68
2023/07/22 12:02:00;;;;;;;7.13;4.05;;;19.80;62.90;;;;;;5006047;28;20662;-68
2023/07/22 12:04:25;;;;;;;6.68;4.22;;;20.00;63.20;;;;;;5010952;28;20050;-68
2023/07/22 12:06:51;;;;;;;6.50;3.95;;;20.10;63.90;;;;;;5008424;28;20114;-69
2023/07/22 12:09:16;;;;;;;6.88;4.15;;;20.50;62.80;;;;;;5007423;28;20524;-68
2023/07/22 12:11:42;;;;;;;8.82;4.50;;;20.30;62.90;;;;;;5008936;28;20030;-68
2023/07/22 12:14:12;;;;;;;6.85;3.90;;;20.50;62.60;;;;;;5009553;28;20042;-68
2023/07/22 12:16:40;;;;;;;6.47;3.50;;;20.50;62.20;;;;;;5003006;28;20034;-69
2023/07/22 12:19:08;;;;;;;10.93;4.30;;;20.70;64.00;;;;;;5005262;28;20555;-71
2023/07/22 12:21:34;;;;;;;8.07;4.30;;;20.70;64.70;;;;;;5005843;28;20037;-69
2023/07/22 12:24:01;;;;;;;6.15;4.15;;;20.60;64.70;;;;;;5010184;28;20030;-68
2023/07/22 12:26:27;;;;;;;9.55;4.50;;;20.60;64.60;;;;;;5005285;28;20034;-68
2023/07/22 12:28:52;;;;;;;7.90;3.55;;;20.50;65.40;;;;;;5008884;28;20331;-68
2023/07/22 12:31:18;;;;;;;5.63;3.60;;;20.00;64.70;;;;;;5011281;28;20022;-68
2023/07/22 12:33:43;;;;;;;7.55;3.50;;;19.90;64.20;;;;;;5001520;28;20025;-68